Time;durP1;ratioP1;P1;durP2;ratioP2;P2;SDS_P1;SDS_P2;PMS_P1;PMS_P2;Temp;Humidity;BMP_temperature;BMP_pressure;BME280_temperature;BME280_humidity;BME280_pressure;Samples;Min_cycle;Max_cycle;Signal;HPM_P1;HPM_P2
2022/01/18 00:01:24;;;;;;;1.73;1.63;;;4.70;97.30;3.80;100035.00;;;;5116126;28;20220;-80
2022/01/18 00:03:50;;;;;;;2.43;1.67;;;4.70;97.40;3.80;100036.00;;;;5117255;28;20258;-80
2022/01/18 00:06:17;;;;;;;1.27;1.27;;;4.70;97.70;3.90;100038.00;;;;5116996;28;20239;-80
2022/01/18 00:08:44;;;;;;;1.83;1.53;;;4.70;98.00;4.00;100036.00;;;;5117042;28;20301;-79
2022/01/18 00:11:10;;;;;;;1.07;1.07;;;4.70;98.20;3.90;100004.00;;;;5116903;28;20564;-78
2022/01/18 00:13:41;;;;;;;1.77;1.67;;;4.80;97.40;4.00;100036.00;;;;5116950;28;20209;-80
2022/01/18 00:16:24;;;;;;;1.37;1.37;;;4.80;97.80;4.00;100041.00;;;;5116869;28;20238;-79
2022/01/18 00:18:52;;;;;;;1.23;1.23;;;4.80;97.10;3.90;100044.00;;;;5116767;28;20221;-79
2022/01/18 00:21:30;;;;;;;1.43;1.43;;;4.80;97.20;4.00;100048.00;;;;5116756;28;20248;-79
2022/01/18 00:23:58;;;;;;;1.60;1.50;;;4.80;97.40;4.00;100036.00;;;;5116648;28;20303;-80
2022/01/18 00:26:29;;;;;;;1.20;1.20;;;4.80;97.20;4.00;100042.00;;;;5123501;28;20204;-81
2022/01/18 00:29:06;;;;;;;1.87;1.60;;;4.80;97.30;4.00;100044.00;;;;5129279;28;20247;-81
2022/01/18 00:34:22;;;;;;;1.33;1.33;;;4.80;97.30;4.20;100052.00;;;;5118203;28;20208;-80
2022/01/18 00:36:58;;;;;;;1.00;1.00;;;4.90;97.20;4.10;100058.00;;;;5117256;28;20194;-80
2022/01/18 00:39:27;;;;;;;1.53;1.47;;;4.90;96.80;4.10;100055.00;;;;5117764;28;20202;-81
2022/01/18 00:41:54;;;;;;;1.60;1.53;;;4.90;96.80;4.10;100067.00;;;;5128920;28;20213;-81
2022/01/18 00:44:21;;;;;;;3.37;1.50;;;4.90;96.80;4.00;100067.00;;;;5128432;28;20218;-79
2022/01/18 00:46:51;;;;;;;1.23;1.23;;;4.90;96.80;4.10;100064.00;;;;5117280;28;20240;-80
2022/01/18 00:49:18;;;;;;;1.53;1.40;;;4.90;97.20;4.30;100063.00;;;;5116503;28;20305;-81
2022/01/18 00:51:52;;;;;;;1.90;1.77;;;4.90;97.30;4.10;100074.00;;;;5116084;28;20245;-80
2022/01/18 00:54:22;;;;;;;1.80;1.70;;;5.00;96.40;4.10;100060.00;;;;5116216;28;20213;-80
2022/01/18 00:56:52;;;;;;;1.50;1.40;;;4.90;96.60;4.10;100065.00;;;;5098146;28;20613;-80
2022/01/18 00:59:19;;;;;;;2.37;2.27;;;4.90;96.60;4.00;100064.00;;;;5116171;28;20194;-80
2022/01/18 01:01:47;;;;;;;1.33;1.23;;;4.90;96.40;4.10;100068.00;;;;5116025;28;20320;-80
2022/01/18 01:04:14;;;;;;;1.43;1.07;;;4.90;96.70;4.00;100068.00;;;;5115954;28;20746;-79
2022/01/18 01:06:41;;;;;;;1.20;1.20;;;4.90;96.60;4.00;100077.00;;;;5116249;28;20214;-79
2022/01/18 01:09:07;;;;;;;1.90;1.63;;;4.90;96.90;4.10;100063.00;;;;5115971;28;20241;-79
2022/01/18 01:11:37;;;;;;;1.47;1.47;;;4.90;96.80;4.00;100077.00;;;;5115222;28;20762;-81
2022/01/18 01:14:08;;;;;;;1.93;1.63;;;4.90;96.40;4.10;100067.00;;;;5116023;28;20312;-81
2022/01/18 01:16:59;;;;;;;1.90;1.80;;;4.90;96.70;4.10;100089.00;;;;5115955;28;20204;-79
2022/01/18 01:19:47;;;;;;;2.00;1.63;;;4.90;96.90;4.10;100082.00;;;;5115882;28;20194;-81
2022/01/18 01:42:08;;;;;;;1.60;1.50;;;4.80;97.10;4.10;100096.00;;;;5115375;28;20217;-80
2022/01/18 01:44:44;;;;;;;3.67;1.30;;;4.90;97.50;4.10;100101.00;;;;5115286;28;20233;-79
2022/01/18 01:47:13;;;;;;;1.73;1.63;;;4.90;97.20;4.10;100106.00;;;;5115312;28;20193;-80
2022/01/18 01:49:40;;;;;;;2.10;2.00;;;4.90;96.90;4.00;100105.00;;;;5097428;28;20230;-79
2022/01/18 01:52:11;;;;;;;1.60;1.53;;;4.90;96.90;4.10;100100.00;;;;5115249;28;20205;-79
2022/01/18 01:54:39;;;;;;;2.30;2.10;;;4.90;97.00;4.00;100103.00;;;;5115168;28;20201;-79
2022/01/18 01:57:07;;;;;;;0.90;0.90;;;4.90;97.10;4.10;100108.00;;;;5114890;28;20243;-80
2022/01/18 01:59:34;;;;;;;0.70;0.70;;;4.80;97.20;4.00;100115.00;;;;5115073;28;20281;-78
2022/01/18 02:02:02;;;;;;;1.53;1.43;;;4.80;97.10;4.00;100113.00;;;;5114943;28;20289;-79
2022/01/18 02:04:29;;;;;;;7.77;2.27;;;4.80;97.20;4.20;100122.00;;;;5114827;28;20304;-80
2022/01/18 02:06:58;;;;;;;1.73;1.63;;;4.90;97.50;4.10;100114.00;;;;5114968;28;20232;-78
2022/01/18 02:09:25;;;;;;;1.83;1.73;;;4.90;96.40;4.10;100100.00;;;;5114996;28;20548;-80
2022/01/18 02:11:55;;;;;;;3.23;3.03;;;4.90;96.30;4.00;100096.00;;;;5115131;28;20345;-80
2022/01/18 02:14:23;;;;;;;2.27;1.70;;;4.80;96.40;3.90;100106.00;;;;5114927;28;20198;-79
2022/01/18 02:22:23;;;;;;;1.07;1.07;;;4.70;98.50;4.00;100106.00;;;;5114862;28;20198;-80
2022/01/18 02:24:49;;;;;;;3.43;2.33;;;4.80;97.10;3.90;100103.00;;;;5114741;28;20225;-80
2022/01/18 02:27:16;;;;;;;6.63;1.70;;;4.70;97.20;3.90;100104.00;;;;5114754;28;20658;-80
2022/01/18 02:29:43;;;;;;;1.80;1.70;;;4.70;97.30;3.90;100108.00;;;;5114693;28;20218;-78
2022/01/18 02:32:10;;;;;;;1.90;1.80;;;4.70;97.70;3.80;100110.00;;;;5114697;28;20636;-79
2022/01/18 02:34:37;;;;;;;2.40;2.20;;;4.70;97.80;3.90;100098.00;;;;5114701;28;20190;-79
2022/01/18 02:37:06;;;;;;;16.60;1.90;;;4.70;97.90;3.80;100108.00;;;;5114584;28;20312;-79
2022/01/18 02:39:33;;;;;;;1.20;1.20;;;4.70;97.90;3.90;100100.00;;;;5114593;28;20235;-79
2022/01/18 02:42:03;;;;;;;2.30;2.10;;;4.80;98.10;4.00;100114.00;;;;5114524;28;20225;-79
2022/01/18 02:44:35;;;;;;;1.80;1.70;;;4.70;98.20;4.00;100110.00;;;;5114524;28;20248;-80
2022/01/18 02:47:03;;;;;;;1.77;1.67;;;4.80;97.70;4.00;100114.00;;;;5114538;28;20250;-80
2022/01/18 02:49:30;;;;;;;3.20;2.00;;;4.80;97.30;4.10;100100.00;;;;5096557;28;20316;-80
2022/01/18 02:52:00;;;;;;;2.17;2.07;;;4.80;97.10;4.00;100100.00;;;;5114541;28;20210;-81
2022/01/18 02:54:27;;;;;;;1.87;1.77;;;4.80;97.00;3.90;100105.00;;;;5114301;28;20637;-79
2022/01/18 02:57:01;;;;;;;4.83;2.20;;;4.80;97.20;3.90;100099.00;;;;5114334;28;20304;-80
2022/01/18 02:59:34;;;;;;;1.43;1.40;;;4.70;97.50;3.90;100103.00;;;;5114323;28;20206;-79
2022/01/18 03:04:51;;;;;;;1.40;1.23;;;4.80;98.00;3.90;100094.00;;;;5114268;28;20220;-80
2022/01/18 03:07:19;;;;;;;1.53;1.43;;;4.80;97.60;3.80;100089.00;;;;5114344;28;20210;-80
2022/01/18 03:09:46;;;;;;;2.00;1.90;;;4.70;97.60;3.80;100096.00;;;;5114240;28;20253;-79
2022/01/18 03:12:15;;;;;;;2.07;1.73;;;4.70;97.60;3.90;100091.00;;;;5114363;28;20277;-80
2022/01/18 03:14:42;;;;;;;1.77;1.67;;;4.70;98.10;4.00;100099.00;;;;5114122;28;20190;-79
2022/01/18 03:17:09;;;;;;;1.90;1.80;;;4.80;98.10;4.00;100094.00;;;;5114035;28;20649;-80
2022/01/18 03:19:37;;;;;;;1.73;1.63;;;4.80;97.70;4.00;100098.00;;;;5114168;28;20193;-78
2022/01/18 03:22:07;;;;;;;5.20;2.40;;;4.80;97.70;3.90;100095.00;;;;5114450;28;20198;-79
2022/01/18 03:24:47;;;;;;;1.83;1.73;;;4.80;97.40;3.90;100097.00;;;;5114414;28;20221;-81
2022/01/18 03:30:12;;;;;;;2.53;2.43;;;4.80;97.50;4.00;100089.00;;;;5054282;28;20230;-79
2022/01/18 03:32:40;;;;;;;1.80;1.37;;;4.70;97.50;4.10;100102.00;;;;5113873;28;20519;-79
2022/01/18 03:35:09;;;;;;;3.60;2.43;;;4.80;97.20;3.90;100096.00;;;;5114653;28;20198;-79
2022/01/18 03:37:39;;;;;;;2.33;1.83;;;4.80;96.70;3.90;100095.00;;;;5117400;28;20210;-79
2022/01/18 03:40:08;;;;;;;2.67;2.50;;;4.70;97.20;3.90;100100.00;;;;5117419;28;20289;-78
2022/01/18 03:42:40;;;;;;;1.73;1.63;;;4.70;97.40;3.80;100097.00;;;;5117332;28;20240;-80
2022/01/18 03:45:12;;;;;;;2.57;2.37;;;4.60;97.30;3.80;100100.00;;;;5117540;28;20194;-79
2022/01/18 03:47:40;;;;;;;2.17;2.07;;;4.60;97.80;3.80;100094.00;;;;5099583;28;20311;-79
2022/01/18 03:50:09;;;;;;;1.60;1.53;;;4.60;97.90;3.90;100102.00;;;;5117173;28;20599;-79
2022/01/18 03:52:38;;;;;;;2.27;2.10;;;4.70;98.30;3.80;100101.00;;;;5117178;28;20293;-79
2022/01/18 03:55:07;;;;;;;4.60;3.53;;;4.70;97.90;3.70;100100.00;;;;5117285;28;20329;-80
2022/01/18 03:57:36;;;;;;;3.17;1.30;;;4.60;97.90;3.70;100078.00;;;;5117169;28;20244;-82
2022/01/18 04:00:06;;;;;;;1.73;1.63;;;4.60;98.20;3.80;100110.00;;;;5117307;28;20593;-80
2022/01/18 04:02:33;;;;;;;1.33;1.33;;;4.60;98.30;3.70;100107.00;;;;5117095;28;20633;-80
2022/01/18 04:05:00;;;;;;;2.20;2.00;;;4.60;98.40;3.70;100117.00;;;;5116987;28;20301;-81
2022/01/18 04:07:27;;;;;;;1.90;1.80;;;4.60;98.60;3.70;100108.00;;;;5116048;28;20552;-79
2022/01/18 04:09:53;;;;;;;2.50;2.30;;;4.50;98.60;3.70;100101.00;;;;5116747;28;20230;-80
2022/01/18 04:12:20;;;;;;;1.40;1.30;;;4.60;98.60;3.70;100115.00;;;;5116894;28;20205;-79
2022/01/18 04:14:47;;;;;;;6.30;2.47;;;4.60;98.60;3.70;100122.00;;;;5116818;28;20705;-79
2022/01/18 04:17:29;;;;;;;2.07;1.97;;;4.50;98.50;3.70;100113.00;;;;5116925;28;20291;-79
2022/01/18 04:28:22;;;;;;;1.70;1.60;;;4.60;98.50;3.70;100114.00;;;;5118084;28;20263;-80
2022/01/18 04:30:49;;;;;;;2.13;1.93;;;4.50;98.70;3.70;100125.00;;;;5116723;28;20249;-80
2022/01/18 04:33:16;;;;;;;3.73;3.53;;;4.50;99.00;3.80;100120.00;;;;5119776;28;20257;-80
2022/01/18 04:35:43;;;;;;;1.43;1.40;;;4.60;99.10;3.80;100113.00;;;;5129129;28;20265;-81
2022/01/18 04:38:09;;;;;;;1.20;1.20;;;4.60;98.80;3.80;100121.00;;;;5108825;28;20525;-79
2022/01/18 04:40:41;;;;;;;2.50;2.40;;;4.60;98.80;3.90;100121.00;;;;5117332;28;20198;-79
2022/01/18 04:43:16;;;;;;;2.40;2.30;;;4.70;98.70;3.80;100122.00;;;;5116556;28;20251;-79
2022/01/18 04:48:33;;;;;;;5.53;2.03;;;4.70;98.30;3.80;100137.00;;;;5115484;28;20578;-80
2022/01/18 04:51:06;;;;;;;3.77;1.87;;;4.70;98.50;3.90;100139.00;;;;5116311;28;20222;-78
2022/01/18 04:53:39;;;;;;;2.00;1.87;;;4.70;98.30;3.90;100136.00;;;;5116195;28;20202;-80
2022/01/18 04:56:10;;;;;;;3.23;2.93;;;4.70;98.30;3.90;100139.00;;;;5116151;28;20229;-80
2022/01/18 04:58:38;;;;;;;1.27;1.27;;;4.70;99.00;3.90;100144.00;;;;5116254;28;20194;-80
2022/01/18 05:01:07;;;;;;;2.57;2.37;;;4.70;98.20;3.80;100144.00;;;;5116248;28;20208;-80
2022/01/18 05:03:35;;;;;;;2.53;2.33;;;4.70;98.00;3.80;100143.00;;;;5116055;28;20303;-81
2022/01/18 05:06:08;;;;;;;1.63;1.60;;;4.60;98.20;3.80;100135.00;;;;5115844;28;20186;-81
2022/01/18 05:08:36;;;;;;;2.50;1.50;;;4.60;98.40;3.80;100140.00;;;;5097944;28;20670;-80
2022/01/18 05:11:03;;;;;;;3.77;1.43;;;4.60;98.40;3.70;100141.00;;;;5097839;28;20230;-80
2022/01/18 05:14:03;;;;;;;1.83;1.73;;;4.60;98.30;3.80;100149.00;;;;5115828;28;20192;-80
2022/01/18 05:16:46;;;;;;;2.07;1.97;;;4.60;98.70;3.70;100147.00;;;;5115961;28;20245;-80
2022/01/18 05:19:21;;;;;;;3.53;2.40;;;4.60;98.60;3.70;100137.00;;;;5115803;28;20208;-80
2022/01/18 05:24:32;;;;;;;2.57;2.40;;;4.60;99.00;3.70;100143.00;;;;5064423;28;20269;-80
2022/01/18 05:27:03;;;;;;;2.87;1.63;;;4.60;98.60;3.70;100143.00;;;;5097891;28;20222;-80
2022/01/18 05:29:30;;;;;;;4.17;3.03;;;4.60;98.60;3.60;100138.00;;;;5115538;28;20321;-80
2022/01/18 05:31:57;;;;;;;3.13;1.67;;;4.50;98.80;3.60;100146.00;;;;5115560;28;20218;-80
2022/01/18 05:34:26;;;;;;;2.07;1.97;;;4.50;99.00;3.60;100142.00;;;;5097601;28;20198;-79
2022/01/18 05:36:53;;;;;;;2.20;2.10;;;4.50;99.20;3.60;100147.00;;;;5115375;28;20315;-79
2022/01/18 05:39:21;;;;;;;2.30;2.20;;;4.50;99.20;3.60;100153.00;;;;5115475;28;20186;-79
2022/01/18 05:41:48;;;;;;;3.53;2.83;;;4.50;99.40;3.70;100147.00;;;;5115674;28;20204;-80
2022/01/18 05:44:17;;;;;;;1.97;1.87;;;4.50;99.40;3.60;100095.00;;;;5115549;28;20210;-81
2022/01/18 05:46:44;;;;;;;3.57;2.97;;;4.50;99.30;3.60;100160.00;;;;5115542;28;20273;-80
2022/01/18 05:49:12;;;;;;;2.37;2.13;;;4.50;99.40;3.60;100148.00;;;;5115109;28;20257;-80
2022/01/18 05:51:43;;;;;;;5.33;3.13;;;4.40;99.30;3.60;100143.00;;;;5115530;28;20615;-80
2022/01/18 05:54:09;;;;;;;1.97;1.87;;;4.40;99.50;3.60;100151.00;;;;5097606;28;20259;-80
2022/01/18 05:56:36;;;;;;;1.00;1.00;;;4.40;99.50;3.60;100145.00;;;;5115038;28;20222;-80
2022/01/18 05:59:05;;;;;;;1.90;1.33;;;4.40;99.60;3.60;100149.00;;;;5114723;28;20201;-79
2022/01/18 06:01:35;;;;;;;2.40;2.20;;;4.50;99.90;3.60;100158.00;;;;5115204;28;20194;-80
2022/01/18 06:04:13;;;;;;;1.27;1.27;;;4.50;99.80;3.60;100149.00;;;;5097067;28;20221;-80
2022/01/18 06:06:51;;;;;;;4.80;3.00;;;4.40;99.60;3.50;100144.00;;;;5097061;28;20198;-81
2022/01/18 06:09:19;;;;;;;2.50;2.27;;;4.40;99.50;3.50;100157.00;;;;5114852;28;20253;-80
2022/01/18 06:11:46;;;;;;;2.70;2.60;;;4.40;99.70;3.50;100150.00;;;;5114744;28;20202;-80
2022/01/18 06:14:16;;;;;;;2.23;2.13;;;4.40;99.80;3.40;100156.00;;;;5115097;28;20678;-80
2022/01/18 06:16:43;;;;;;;2.27;2.17;;;4.40;99.70;3.40;100162.00;;;;5114629;28;20589;-79
2022/01/18 06:19:09;;;;;;;2.10;2.00;;;4.30;99.80;3.40;100148.00;;;;5114629;28;20240;-80
2022/01/18 06:21:36;;;;;;;2.63;1.87;;;4.30;99.80;3.40;100158.00;;;;5114858;28;20580;-80
2022/01/18 06:24:03;;;;;;;2.20;1.57;;;4.30;99.80;3.40;100149.00;;;;5114999;28;20203;-80
2022/01/18 06:26:31;;;;;;;2.77;2.17;;;4.30;99.70;3.30;100157.00;;;;5114685;28;20194;-80
2022/01/18 06:28:58;;;;;;;1.23;1.13;;;4.30;99.80;3.40;100155.00;;;;5114356;28;20758;-80
2022/01/18 06:31:24;;;;;;;4.27;3.87;;;4.30;99.90;3.40;100164.00;;;;5114628;28;20303;-80
2022/01/18 06:33:53;;;;;;;2.00;1.90;;;4.30;99.90;3.30;100169.00;;;;5114525;28;20255;-80
2022/01/18 06:36:19;;;;;;;3.00;2.80;;;4.20;99.90;3.40;100179.00;;;;5114490;28;20319;-79
2022/01/18 06:38:46;;;;;;;2.27;2.10;;;4.20;99.90;3.40;100173.00;;;;5114516;28;20200;-81
2022/01/18 06:41:13;;;;;;;1.03;1.03;;;4.30;99.90;3.40;100174.00;;;;5114569;28;20262;-80
2022/01/18 06:43:40;;;;;;;2.50;1.93;;;4.20;99.80;3.30;100182.00;;;;5114374;28;20691;-80
2022/01/18 06:46:06;;;;;;;3.83;2.30;;;4.30;99.90;3.30;100189.00;;;;5114390;28;20284;-80
2022/01/18 06:48:33;;;;;;;2.20;2.10;;;4.20;99.90;3.30;100191.00;;;;5096770;28;20227;-80
2022/01/18 06:50:59;;;;;;;2.40;2.30;;;4.20;99.90;3.30;100196.00;;;;5114290;28;20552;-79
2022/01/18 06:53:31;;;;;;;8.33;2.03;;;4.20;99.90;3.40;100190.00;;;;5114520;28;20225;-80
2022/01/18 06:55:58;;;;;;;4.23;3.80;;;4.20;99.90;3.40;100195.00;;;;5114229;28;20240;-80
2022/01/18 06:58:24;;;;;;;2.07;1.93;;;4.20;99.90;3.40;100199.00;;;;5114351;28;20203;-80
2022/01/18 07:00:51;;;;;;;7.80;4.37;;;4.20;99.90;3.30;100192.00;;;;5114251;28;20190;-79
2022/01/18 07:03:19;;;;;;;3.03;2.83;;;4.20;99.90;3.30;100201.00;;;;5114431;28;20603;-79
2022/01/18 07:05:48;;;;;;;3.90;2.20;;;4.30;99.90;3.40;100201.00;;;;5114256;28;20652;-79
2022/01/18 07:08:14;;;;;;;2.80;2.63;;;4.30;99.90;3.40;100209.00;;;;5114267;28;20501;-80
2022/01/18 07:10:41;;;;;;;2.03;1.93;;;4.20;99.90;3.30;100205.00;;;;5115748;28;20256;-80
2022/01/18 07:13:08;;;;;;;2.10;2.00;;;4.30;99.90;3.40;100207.00;;;;5117928;28;20661;-80
2022/01/18 07:15:37;;;;;;;2.57;1.83;;;4.30;99.90;3.40;100206.00;;;;5118488;28;20221;-80
2022/01/18 07:18:05;;;;;;;1.70;1.60;;;4.30;99.90;3.40;100203.00;;;;5117835;28;20222;-79
2022/01/18 07:20:32;;;;;;;2.73;2.53;;;4.20;99.90;3.40;100206.00;;;;5117555;28;20648;-79
2022/01/18 07:22:59;;;;;;;2.10;2.00;;;4.30;99.90;3.40;100210.00;;;;5117581;28;20648;-79
2022/01/18 07:25:26;;;;;;;1.97;1.87;;;4.30;99.90;3.40;100210.00;;;;5117759;28;20278;-78
2022/01/18 07:27:53;;;;;;;2.13;2.03;;;4.30;99.90;3.40;100211.00;;;;5117656;28;20189;-80
2022/01/18 07:30:20;;;;;;;1.97;1.67;;;4.30;99.90;3.40;100218.00;;;;5117878;28;20230;-79
2022/01/18 07:32:49;;;;;;;3.20;2.97;;;4.30;99.90;3.50;100224.00;;;;5099761;28;20285;-80
2022/01/18 07:35:18;;;;;;;2.53;2.40;;;4.30;99.90;3.50;100216.00;;;;5117496;28;20662;-80
2022/01/18 07:37:45;;;;;;;1.20;1.20;;;4.30;99.90;3.50;100221.00;;;;5117736;28;20198;-80
2022/01/18 07:40:12;;;;;;;2.30;2.20;;;4.40;99.90;3.50;100224.00;;;;5099183;28;20297;-78
2022/01/18 07:42:39;;;;;;;2.00;1.90;;;4.40;99.90;3.60;100224.00;;;;5117770;28;20182;-81
2022/01/18 07:45:09;;;;;;;3.83;3.50;;;4.40;99.90;3.60;100235.00;;;;5118008;28;20254;-79
2022/01/18 07:47:36;;;;;;;2.77;2.53;;;4.50;99.90;3.60;100224.00;;;;5117150;28;20218;-78
2022/01/18 07:50:04;;;;;;;1.83;1.73;;;4.50;99.90;3.60;100230.00;;;;5117304;28;20317;-80
2022/01/18 07:52:35;;;;;;;3.30;3.07;;;4.50;99.90;3.70;100239.00;;;;5117373;28;20663;-80
2022/01/18 07:55:02;;;;;;;1.90;1.80;;;4.50;99.90;3.60;100230.00;;;;5119274;28;20194;-85
2022/01/18 07:57:29;;;;;;;3.03;2.83;;;4.50;99.90;3.60;100231.00;;;;5117246;28;20297;-84
2022/01/18 07:59:56;;;;;;;3.07;2.87;;;4.50;99.90;3.70;100222.00;;;;5099231;28;20253;-79
2022/01/18 08:02:22;;;;;;;4.60;3.07;;;4.50;99.90;3.70;100230.00;;;;5117176;28;20284;-76
2022/01/18 08:04:49;;;;;;;3.83;2.43;;;4.60;99.90;3.80;100238.00;;;;5116939;28;20581;-75
2022/01/18 08:07:16;;;;;;;4.07;3.77;;;4.60;99.90;3.80;100248.00;;;;5116929;28;20238;-76
2022/01/18 08:09:45;;;;;;;3.00;2.70;;;4.60;99.90;3.80;100246.00;;;;5116701;28;20221;-76
2022/01/18 08:12:12;;;;;;;2.50;2.30;;;4.60;99.90;3.80;100242.00;;;;5116986;28;20222;-80
2022/01/18 08:14:42;;;;;;;2.83;2.67;;;4.70;99.90;3.90;100239.00;;;;5116945;28;20284;-76
2022/01/18 08:17:10;;;;;;;2.60;2.40;;;4.70;99.90;3.90;100247.00;;;;5116811;28;20222;-77
2022/01/18 08:19:39;;;;;;;4.33;2.87;;;4.70;99.90;3.90;100242.00;;;;5116813;28;20194;-77
2022/01/18 08:22:06;;;;;;;3.00;2.80;;;4.80;99.90;4.00;100251.00;;;;5116606;28;20214;-77
2022/01/18 08:24:33;;;;;;;4.77;2.63;;;4.80;99.90;4.00;100240.00;;;;5127124;28;20198;-79
2022/01/18 08:27:04;;;;;;;2.10;2.00;;;4.80;99.90;4.00;100244.00;;;;5129115;28;20194;-77
2022/01/18 08:29:30;;;;;;;5.50;2.27;;;4.80;99.90;4.10;100241.00;;;;5124352;28;20324;-78
2022/01/18 08:31:59;;;;;;;2.60;2.40;;;4.90;99.90;4.00;100248.00;;;;5099904;28;20299;-76
2022/01/18 08:34:25;;;;;;;3.00;2.70;;;4.90;99.80;4.10;100241.00;;;;5117276;28;20204;-78
2022/01/18 08:36:52;;;;;;;2.33;2.23;;;5.00;99.80;4.20;100240.00;;;;5116832;28;20284;-76
2022/01/18 08:39:18;;;;;;;5.47;2.53;;;5.00;99.80;4.20;100247.00;;;;5125649;28;20198;-78
2022/01/18 08:41:45;;;;;;;2.50;2.23;;;5.10;99.80;4.30;100244.00;;;;5128998;28;20226;-77
2022/01/18 08:44:13;;;;;;;2.17;2.07;;;5.10;99.40;4.30;100250.00;;;;5123390;28;20628;-77
2022/01/18 08:46:42;;;;;;;3.33;1.90;;;5.10;99.30;4.30;100241.00;;;;5117569;28;20228;-80
2022/01/18 08:49:11;;;;;;;1.73;1.63;;;5.20;99.20;4.40;100241.00;;;;5116352;28;20205;-75
2022/01/18 08:51:41;;;;;;;3.93;2.13;;;5.20;98.80;4.50;100251.00;;;;5116318;28;20206;-78
2022/01/18 08:54:07;;;;;;;2.00;1.90;;;5.30;99.50;4.60;100246.00;;;;5116169;28;20304;-77
2022/01/18 08:56:36;;;;;;;2.43;2.23;;;5.40;98.30;4.60;100251.00;;;;5116330;28;20239;-78
2022/01/18 08:59:03;;;;;;;0.93;0.93;;;5.40;98.10;4.60;100260.00;;;;5116123;28;20209;-76
2022/01/18 09:01:30;;;;;;;2.57;2.40;;;5.40;97.60;4.70;100248.00;;;;5116075;28;20326;-76
2022/01/18 09:03:56;;;;;;;1.57;1.30;;;5.50;97.70;4.80;100255.00;;;;5116007;28;20537;-77
2022/01/18 09:06:25;;;;;;;1.23;1.23;;;5.50;97.20;4.90;100249.00;;;;5115897;28;20245;-76
2022/01/18 09:08:56;;;;;;;2.77;2.57;;;5.60;96.40;4.90;100255.00;;;;5116156;28;20213;-78
2022/01/18 09:11:24;;;;;;;1.63;1.53;;;5.70;96.00;4.90;100216.00;;;;5116182;28;20225;-77
2022/01/18 09:13:52;;;;;;;2.00;1.90;;;5.70;95.40;5.00;100236.00;;;;5115885;28;20591;-79
2022/01/18 09:16:18;;;;;;;2.70;1.63;;;5.70;95.30;5.00;100249.00;;;;5116384;28;20347;-78
2022/01/18 09:18:46;;;;;;;1.33;1.33;;;5.80;95.90;5.10;100245.00;;;;5115834;28;20207;-77
2022/01/18 09:21:13;;;;;;;2.13;1.93;;;5.90;95.20;5.30;100253.00;;;;5115911;28;20194;-78
2022/01/18 09:23:43;;;;;;;1.80;1.70;;;5.90;94.60;5.40;100256.00;;;;5115785;28;20293;-76
2022/01/18 09:26:13;;;;;;;1.90;1.80;;;6.10;94.40;5.40;100258.00;;;;5115787;28;20222;-79
2022/01/18 09:28:40;;;;;;;1.30;1.30;;;6.10;93.70;5.50;100248.00;;;;5115945;28;20205;-77
2022/01/18 09:31:07;;;;;;;2.30;2.20;;;6.20;93.10;5.50;100257.00;;;;5115659;28;20253;-79
2022/01/18 09:33:34;;;;;;;1.77;1.73;;;6.20;92.40;5.50;100258.00;;;;5097518;28;20237;-77
2022/01/18 09:36:01;;;;;;;9.03;2.53;;;6.30;91.90;5.70;100257.00;;;;5115843;28;20574;-78
2022/01/18 09:38:28;;;;;;;1.27;1.27;;;6.30;91.30;5.80;100251.00;;;;5115536;28;20258;-80
2022/01/18 09:40:54;;;;;;;3.23;2.80;;;6.40;91.20;5.90;100259.00;;;;5115715;28;20210;-77
2022/01/18 09:43:21;;;;;;;6.50;3.10;;;6.50;90.00;6.00;100256.00;;;;5115454;28;20186;-77
2022/01/18 09:45:48;;;;;;;2.53;2.33;;;6.60;89.60;6.00;100260.00;;;;5115267;28;20229;-75
2022/01/18 09:48:15;;;;;;;1.10;1.10;;;6.60;89.60;6.00;100252.00;;;;5115439;28;20629;-78
2022/01/18 09:50:45;;;;;;;2.63;1.87;;;6.70;88.80;6.00;100256.00;;;;5097321;28;20604;-77
2022/01/18 09:53:14;;;;;;;1.67;1.57;;;6.70;89.00;6.20;100261.00;;;;5115442;28;20653;-76
2022/01/18 09:55:42;;;;;;;4.33;2.63;;;6.80;87.90;6.20;100258.00;;;;5115263;28;20494;-77
2022/01/18 09:58:10;;;;;;;1.23;1.23;;;6.90;88.10;6.40;100262.00;;;;5115043;28;20223;-78
2022/01/18 10:00:43;;;;;;;1.90;1.20;;;7.00;86.70;6.30;100256.00;;;;5115242;28;20228;-78
2022/01/18 10:03:29;;;;;;;2.70;1.50;;;7.00;86.30;6.40;100258.00;;;;5115089;28;20194;-77
2022/01/18 10:05:57;;;;;;;2.13;1.97;;;7.00;86.00;6.60;100257.00;;;;5115080;28;20201;-78
2022/01/18 10:08:25;;;;;;;1.63;1.53;;;7.10;85.80;6.40;100262.00;;;;5115200;28;20206;-77
2022/01/18 10:10:57;;;;;;;2.20;1.27;;;7.20;84.90;6.60;100258.00;;;;5114921;28;20292;-77
2022/01/18 10:13:26;;;;;;;1.63;1.23;;;7.20;84.30;6.50;100251.00;;;;5115001;28;20275;-78
2022/01/18 10:16:07;;;;;;;2.40;2.30;;;7.20;83.70;6.60;100259.00;;;;5114872;28;20730;-77
2022/01/18 10:18:45;;;;;;;2.73;1.90;;;7.20;84.40;6.60;100260.00;;;;5115102;28;20198;-78
2022/01/18 10:21:14;;;;;;;1.77;1.67;;;7.30;82.90;6.70;100255.00;;;;5097219;28;20617;-78
2022/01/18 10:23:49;;;;;;;3.17;2.77;;;7.30;83.50;6.70;100256.00;;;;5114802;28;20202;-78
2022/01/18 10:26:22;;;;;;;8.43;1.57;;;7.30;82.80;6.70;100255.00;;;;5115063;28;20566;-79
2022/01/18 10:29:01;;;;;;;3.53;1.77;;;7.40;82.10;6.80;100243.00;;;;5114786;28;20269;-79
2022/01/18 10:31:38;;;;;;;1.43;1.33;;;7.40;82.60;6.70;100244.00;;;;5114955;28;20223;-76
2022/01/18 10:34:22;;;;;;;1.13;1.13;;;7.40;82.60;6.80;100219.00;;;;5114857;28;20214;-77
2022/01/18 10:37:02;;;;;;;0.93;0.93;;;7.50;81.40;6.80;100234.00;;;;5096887;28;20200;-79
2022/01/18 10:39:32;;;;;;;1.23;1.17;;;7.50;81.30;6.80;100236.00;;;;5114703;28;20229;-79
2022/01/18 10:42:02;;;;;;;2.23;2.03;;;7.50;81.60;6.70;100235.00;;;;5114557;28;20297;-79
2022/01/18 10:44:31;;;;;;;1.50;1.50;;;7.40;80.80;6.70;100231.00;;;;5114535;28;20205;-78
2022/01/18 10:46:59;;;;;;;1.53;1.47;;;7.40;81.00;6.70;100222.00;;;;5114345;28;20225;-79
2022/01/18 10:49:35;;;;;;;1.53;1.43;;;7.40;81.10;6.70;100221.00;;;;5114596;28;20197;-79
2022/01/18 10:52:08;;;;;;;2.43;2.33;;;7.40;81.60;6.50;100217.00;;;;5096609;28;20703;-78
2022/01/18 10:54:44;;;;;;;1.57;1.50;;;7.40;81.10;6.60;100221.00;;;;5096383;28;20309;-78
2022/01/18 10:57:18;;;;;;;1.60;1.50;;;7.30;81.10;6.50;100225.00;;;;5114465;28;20210;-81
2022/01/18 10:59:45;;;;;;;1.97;1.87;;;7.30;81.00;6.50;100217.00;;;;5114427;28;20377;-79
2022/01/18 11:02:15;;;;;;;2.97;2.63;;;7.20;81.20;6.30;100217.00;;;;5114310;28;20285;-81
2022/01/18 11:04:46;;;;;;;1.87;1.77;;;7.20;82.00;6.40;100207.00;;;;5114332;28;20188;-78
2022/01/18 11:07:15;;;;;;;1.83;1.73;;;7.20;82.70;6.50;100209.00;;;;5114244;28;20315;-77
2022/01/18 11:09:42;;;;;;;1.60;1.50;;;7.20;83.10;6.70;100214.00;;;;5114319;28;20284;-82
2022/01/18 11:12:11;;;;;;;1.43;1.43;;;7.30;82.10;6.70;100206.00;;;;5114155;28;20275;-82
2022/01/18 11:14:43;;;;;;;1.50;1.40;;;7.40;81.80;6.70;100200.00;;;;5114192;28;20192;-82
2022/01/18 11:17:20;;;;;;;1.13;1.13;;;7.40;81.60;6.70;100195.00;;;;5114040;28;20220;-79
2022/01/18 11:19:49;;;;;;;0.80;0.80;;;7.40;80.20;6.80;100193.00;;;;5114026;28;20252;-81
2022/01/18 11:22:19;;;;;;;0.80;0.80;;;7.40;79.50;6.60;100183.00;;;;5114012;28;20202;-81
2022/01/18 11:24:47;;;;;;;1.93;1.83;;;7.30;79.00;6.50;100190.00;;;;5115422;28;20355;-81
2022/01/18 11:27:15;;;;;;;1.43;1.37;;;7.30;79.60;6.50;100190.00;;;;5113979;28;20595;-81
2022/01/18 11:29:45;;;;;;;1.93;1.83;;;7.30;79.50;6.70;100186.00;;;;5114292;28;20224;-82
2022/01/18 11:32:15;;;;;;;2.10;0.90;;;7.40;81.00;6.70;100198.00;;;;5114084;28;20243;-83
2022/01/18 11:34:56;;;;;;;1.07;1.07;;;7.40;79.70;6.80;100193.00;;;;5114091;28;20197;-81
2022/01/18 11:37:33;;;;;;;0.67;0.67;;;7.50;79.20;7.00;100184.00;;;;5114196;28;20216;-82
2022/01/18 11:40:05;;;;;;;0.80;0.80;;;7.60;79.30;7.20;100181.00;;;;5114071;28;20239;-83
2022/01/18 11:42:52;;;;;;;1.50;1.33;;;7.80;78.30;7.60;100188.00;;;;5114481;28;20272;-81
2022/01/18 11:45:39;;;;;;;1.10;1.10;;;8.10;79.60;8.10;100183.00;;;;5113725;28;20660;-82
2022/01/18 11:48:16;;;;;;;1.17;1.17;;;8.50;75.00;8.10;100191.00;;;;5113884;28;20343;-79
2022/01/18 11:50:47;;;;;;;4.47;1.53;;;8.50;74.90;8.00;100190.00;;;;5113772;28;20217;-80
2022/01/18 11:53:42;;;;;;;0.87;0.87;;;8.60;73.80;7.70;100194.00;;;;5113704;28;20662;-80
2022/01/18 11:56:30;;;;;;;0.77;0.77;;;8.40;73.40;7.50;100188.00;;;;5114249;28;20213;-81
2022/01/18 11:59:14;;;;;;;0.97;0.97;;;8.20;74.40;7.30;100191.00;;;;5117211;28;20231;-80
2022/01/18 12:01:49;;;;;;;0.97;0.97;;;8.00;75.60;7.10;100186.00;;;;5117060;28;20208;-81